White Oak, Oklahoma
Current Conditions -  °F | °C
As of 2:35 AM on Friday 19 Dec 2014 (Local Time) from KGMJ Reporting Station
Haze Haze  
Wind Chill: 41°   Ceiling: 100
Heat Index: 41°   Visibility: 0.75mi
Dew Point: 41°   Wind: 3mph
Humidity: 100%   Direction: 10°N
Pressure: 30.23"   Gusts: NA
Location:  36.6347°N, 95.0928°W
Report Text: KGMJ 190835Z AUTO 01003KT 3/4SM BR OVC001 05/05 A3023 RMK AO2
Loading
Personal Weather Stations






























Interactive Weather Map New forecast layout! Learn more

10-Day Weather Forecast

Advertisements
Track Severe Weather on mobile